sensor_id;sensor_type;location;lat;lon;timestamp;P1;durP1;ratioP1;P2;durP2;ratioP2
39242;SDS011;29823;47.404;8.566;2023-03-01T00:01:11;45.03;;;25.88;;
39242;SDS011;29823;47.404;8.566;2023-03-01T00:03:41;44.78;;;24.23;;
39242;SDS011;29823;47.404;8.566;2023-03-01T00:06:11;45.90;;;24.83;;
39242;SDS011;29823;47.404;8.566;2023-03-01T00:08:39;44.75;;;24.42;;
39242;SDS011;29823;47.404;8.566;2023-03-01T00:11:08;42.17;;;23.23;;
39242;SDS011;29823;47.404;8.566;2023-03-01T00:13:39;41.00;;;23.75;;
39242;SDS011;29823;47.404;8.566;2023-03-01T00:16:09;41.83;;;23.73;;
39242;SDS011;29823;47.404;8.566;2023-03-01T00:18:39;43.78;;;24.00;;
39242;SDS011;29823;47.404;8.566;2023-03-01T00:21:07;40.75;;;24.70;;
39242;SDS011;29823;47.404;8.566;2023-03-01T00:23:36;42.33;;;23.92;;
39242;SDS011;29823;47.404;8.566;2023-03-01T00:26:05;39.65;;;23.73;;
39242;SDS011;29823;47.404;8.566;2023-03-01T00:28:34;47.13;;;25.38;;
39242;SDS011;29823;47.404;8.566;2023-03-01T00:31:02;44.47;;;24.52;;
39242;SDS011;29823;47.404;8.566;2023-03-01T00:33:31;44.80;;;25.13;;
39242;SDS011;29823;47.404;8.566;2023-03-01T00:35:59;45.67;;;25.45;;
39242;SDS011;29823;47.404;8.566;2023-03-01T00:38:27;45.45;;;26.23;;
39242;SDS011;29823;47.404;8.566;2023-03-01T00:40:57;48.17;;;25.52;;
39242;SDS011;29823;47.404;8.566;2023-03-01T00:43:30;42.03;;;24.30;;
39242;SDS011;29823;47.404;8.566;2023-03-01T00:46:03;40.83;;;22.92;;
39242;SDS011;29823;47.404;8.566;2023-03-01T00:48:31;44.63;;;25.58;;
39242;SDS011;29823;47.404;8.566;2023-03-01T00:51:03;44.25;;;24.73;;
39242;SDS011;29823;47.404;8.566;2023-03-01T00:53:32;43.80;;;25.75;;
39242;SDS011;29823;47.404;8.566;2023-03-01T00:56:02;47.50;;;25.25;;
39242;SDS011;29823;47.404;8.566;2023-03-01T00:58:30;43.63;;;26.20;;
39242;SDS011;29823;47.404;8.566;2023-03-01T01:00:58;43.75;;;25.15;;
39242;SDS011;29823;47.404;8.566;2023-03-01T01:03:26;42.08;;;24.73;;
39242;SDS011;29823;47.404;8.566;2023-03-01T01:05:54;48.10;;;25.20;;
39242;SDS011;29823;47.404;8.566;2023-03-01T01:08:22;45.78;;;25.90;;
39242;SDS011;29823;47.404;8.566;2023-03-01T01:10:50;43.78;;;26.23;;
39242;SDS011;29823;47.404;8.566;2023-03-01T01:13:19;41.47;;;23.75;;
39242;SDS011;29823;47.404;8.566;2023-03-01T01:15:47;44.83;;;24.77;;
39242;SDS011;29823;47.404;8.566;2023-03-01T01:18:15;45.72;;;25.58;;
39242;SDS011;29823;47.404;8.566;2023-03-01T01:20:43;43.42;;;25.13;;
39242;SDS011;29823;47.404;8.566;2023-03-01T01:23:11;45.72;;;25.75;;
39242;SDS011;29823;47.404;8.566;2023-03-01T01:25:39;42.20;;;24.92;;
39242;SDS011;29823;47.404;8.566;2023-03-01T01:28:07;47.75;;;26.90;;
39242;SDS011;29823;47.404;8.566;2023-03-01T01:30:36;46.22;;;25.58;;
39242;SDS011;29823;47.404;8.566;2023-03-01T01:33:04;48.28;;;25.70;;
39242;SDS011;29823;47.404;8.566;2023-03-01T01:35:32;44.78;;;25.48;;
39242;SDS011;29823;47.404;8.566;2023-03-01T01:37:59;45.45;;;25.38;;
39242;SDS011;29823;47.404;8.566;2023-03-01T01:40:28;43.22;;;26.58;;
39242;SDS011;29823;47.404;8.566;2023-03-01T01:42:55;47.65;;;26.23;;
39242;SDS011;29823;47.404;8.566;2023-03-01T01:45:24;39.70;;;24.10;;
39242;SDS011;29823;47.404;8.566;2023-03-01T01:47:58;46.05;;;26.45;;
39242;SDS011;29823;47.404;8.566;2023-03-01T01:50:30;47.83;;;25.80;;
39242;SDS011;29823;47.404;8.566;2023-03-01T01:53:05;44.70;;;25.38;;
39242;SDS011;29823;47.404;8.566;2023-03-01T01:55:36;46.38;;;26.17;;
39242;SDS011;29823;47.404;8.566;2023-03-01T01:58:11;40.60;;;24.67;;
39242;SDS011;29823;47.404;8.566;2023-03-01T02:00:41;49.58;;;26.73;;
39242;SDS011;29823;47.404;8.566;2023-03-01T02:03:11;44.63;;;25.15;;
39242;SDS011;29823;47.404;8.566;2023-03-01T02:05:45;48.10;;;25.02;;
39242;SDS011;29823;47.404;8.566;2023-03-01T02:08:21;49.42;;;26.40;;
39242;SDS011;29823;47.404;8.566;2023-03-01T02:10:52;45.38;;;25.75;;
39242;SDS011;29823;47.404;8.566;2023-03-01T02:13:22;45.88;;;25.10;;
39242;SDS011;29823;47.404;8.566;2023-03-01T02:15:50;44.58;;;25.60;;
39242;SDS011;29823;47.404;8.566;2023-03-01T02:18:21;43.90;;;23.83;;
39242;SDS011;29823;47.404;8.566;2023-03-01T02:20:54;43.38;;;25.58;;
39242;SDS011;29823;47.404;8.566;2023-03-01T02:23:32;47.35;;;25.70;;
39242;SDS011;29823;47.404;8.566;2023-03-01T02:26:02;43.55;;;25.58;;
39242;SDS011;29823;47.404;8.566;2023-03-01T02:28:37;53.47;;;24.77;;
39242;SDS011;29823;47.404;8.566;2023-03-01T02:31:07;45.53;;;24.92;;
39242;SDS011;29823;47.404;8.566;2023-03-01T02:33:55;45.58;;;25.80;;
39242;SDS011;29823;47.404;8.566;2023-03-01T02:36:25;44.13;;;25.65;;
39242;SDS011;29823;47.404;8.566;2023-03-01T02:38:58;43.38;;;26.17;;
39242;SDS011;29823;47.404;8.566;2023-03-01T02:41:30;41.95;;;24.95;;
39242;SDS011;29823;47.404;8.566;2023-03-01T02:44:03;46.80;;;26.70;;
39242;SDS011;29823;47.404;8.566;2023-03-01T02:46:31;40.97;;;25.00;;
39242;SDS011;29823;47.404;8.566;2023-03-01T02:49:00;42.55;;;22.83;;
39242;SDS011;29823;47.404;8.566;2023-03-01T02:51:34;40.92;;;23.92;;
39242;SDS011;29823;47.404;8.566;2023-03-01T02:54:16;42.95;;;24.58;;
39242;SDS011;29823;47.404;8.566;2023-03-01T02:56:50;46.40;;;24.75;;
39242;SDS011;29823;47.404;8.566;2023-03-01T02:59:20;43.90;;;24.40;;
39242;SDS011;29823;47.404;8.566;2023-03-01T03:01:49;44.28;;;25.20;;
39242;SDS011;29823;47.404;8.566;2023-03-01T03:04:17;44.90;;;24.65;;
39242;SDS011;29823;47.404;8.566;2023-03-01T03:06:48;43.78;;;25.08;;
39242;SDS011;29823;47.404;8.566;2023-03-01T03:09:17;48.88;;;25.77;;
39242;SDS011;29823;47.404;8.566;2023-03-01T03:11:46;48.92;;;25.17;;
39242;SDS011;29823;47.404;8.566;2023-03-01T03:14:15;44.70;;;24.45;;
39242;SDS011;29823;47.404;8.566;2023-03-01T03:16:46;43.60;;;23.48;;
39242;SDS011;29823;47.404;8.566;2023-03-01T03:19:15;42.60;;;23.80;;
39242;SDS011;29823;47.404;8.566;2023-03-01T03:21:43;44.65;;;25.30;;
39242;SDS011;29823;47.404;8.566;2023-03-01T03:24:11;42.28;;;24.13;;
39242;SDS011;29823;47.404;8.566;2023-03-01T03:26:39;43.42;;;22.55;;
39242;SDS011;29823;47.404;8.566;2023-03-01T03:29:07;39.08;;;22.77;;
39242;SDS011;29823;47.404;8.566;2023-03-01T03:31:35;44.78;;;24.98;;
39242;SDS011;29823;47.404;8.566;2023-03-01T03:34:04;41.38;;;24.15;;
39242;SDS011;29823;47.404;8.566;2023-03-01T03:36:32;41.67;;;24.17;;
39242;SDS011;29823;47.404;8.566;2023-03-01T03:39:00;45.63;;;25.80;;
39242;SDS011;29823;47.404;8.566;2023-03-01T03:41:28;42.17;;;23.13;;
39242;SDS011;29823;47.404;8.566;2023-03-01T03:43:56;41.63;;;23.95;;
39242;SDS011;29823;47.404;8.566;2023-03-01T03:46:24;43.05;;;23.88;;
39242;SDS011;29823;47.404;8.566;2023-03-01T03:48:52;41.10;;;22.98;;
39242;SDS011;29823;47.404;8.566;2023-03-01T03:51:21;42.45;;;23.50;;
39242;SDS011;29823;47.404;8.566;2023-03-01T03:53:49;39.80;;;23.15;;
39242;SDS011;29823;47.404;8.566;2023-03-01T03:56:17;39.17;;;22.60;;
39242;SDS011;29823;47.404;8.566;2023-03-01T03:58:45;42.85;;;22.77;;
39242;SDS011;29823;47.404;8.566;2023-03-01T04:01:12;41.75;;;23.15;;
39242;SDS011;29823;47.404;8.566;2023-03-01T04:03:40;42.17;;;23.58;;
39242;SDS011;29823;47.404;8.566;2023-03-01T04:06:12;42.50;;;24.30;;
39242;SDS011;29823;47.404;8.566;2023-03-01T04:08:42;37.67;;;22.70;;
39242;SDS011;29823;47.404;8.566;2023-03-01T04:11:10;44.47;;;24.88;;
39242;SDS011;29823;47.404;8.566;2023-03-01T04:13:54;42.53;;;23.50;;
39242;SDS011;29823;47.404;8.566;2023-03-01T04:16:24;43.00;;;24.45;;
39242;SDS011;29823;47.404;8.566;2023-03-01T04:18:52;47.25;;;25.35;;
39242;SDS011;29823;47.404;8.566;2023-03-01T04:21:20;46.90;;;25.10;;
39242;SDS011;29823;47.404;8.566;2023-03-01T04:23:50;45.25;;;25.40;;
39242;SDS011;29823;47.404;8.566;2023-03-01T04:26:19;45.58;;;24.95;;
39242;SDS011;29823;47.404;8.566;2023-03-01T04:28:47;42.03;;;23.63;;
39242;SDS011;29823;47.404;8.566;2023-03-01T04:31:17;45.13;;;24.98;;
39242;SDS011;29823;47.404;8.566;2023-03-01T04:33:48;32.88;;;18.13;;
39242;SDS011;29823;47.404;8.566;2023-03-01T04:36:19;46.85;;;25.52;;
39242;SDS011;29823;47.404;8.566;2023-03-01T04:38:50;41.03;;;24.55;;
39242;SDS011;29823;47.404;8.566;2023-03-01T04:41:19;44.35;;;24.88;;
39242;SDS011;29823;47.404;8.566;2023-03-01T04:43:48;47.40;;;25.15;;
39242;SDS011;29823;47.404;8.566;2023-03-01T04:46:18;43.85;;;24.75;;
39242;SDS011;29823;47.404;8.566;2023-03-01T04:48:48;33.83;;;18.33;;
39242;SDS011;29823;47.404;8.566;2023-03-01T04:51:16;43.97;;;24.23;;
39242;SDS011;29823;47.404;8.566;2023-03-01T04:53:44;46.67;;;25.17;;
39242;SDS011;29823;47.404;8.566;2023-03-01T04:56:14;47.85;;;26.05;;
39242;SDS011;29823;47.404;8.566;2023-03-01T04:58:44;47.70;;;26.83;;
39242;SDS011;29823;47.404;8.566;2023-03-01T05:01:13;49.55;;;25.05;;
39242;SDS011;29823;47.404;8.566;2023-03-01T05:03:42;48.80;;;26.63;;
39242;SDS011;29823;47.404;8.566;2023-03-01T05:06:11;46.50;;;25.52;;
39242;SDS011;29823;47.404;8.566;2023-03-01T05:08:39;46.63;;;26.17;;
39242;SDS011;29823;47.404;8.566;2023-03-01T05:11:09;44.97;;;24.20;;
39242;SDS011;29823;47.404;8.566;2023-03-01T05:13:39;50.55;;;25.08;;
39242;SDS011;29823;47.404;8.566;2023-03-01T05:16:07;47.47;;;26.55;;
39242;SDS011;29823;47.404;8.566;2023-03-01T05:18:38;47.17;;;26.00;;
39242;SDS011;29823;47.404;8.566;2023-03-01T05:21:08;51.80;;;27.00;;
39242;SDS011;29823;47.404;8.566;2023-03-01T05:23:37;50.67;;;26.25;;
39242;SDS011;29823;47.404;8.566;2023-03-01T05:26:06;51.28;;;26.48;;
39242;SDS011;29823;47.404;8.566;2023-03-01T05:28:54;51.33;;;27.00;;
39242;SDS011;29823;47.404;8.566;2023-03-01T05:31:25;47.90;;;26.73;;
39242;SDS011;29823;47.404;8.566;2023-03-01T05:33:54;50.67;;;26.95;;
39242;SDS011;29823;47.404;8.566;2023-03-01T05:36:22;47.45;;;25.65;;
39242;SDS011;29823;47.404;8.566;2023-03-01T05:38:50;49.88;;;26.92;;
39242;SDS011;29823;47.404;8.566;2023-03-01T05:41:18;49.67;;;25.58;;
39242;SDS011;29823;47.404;8.566;2023-03-01T05:43:45;47.05;;;25.23;;
39242;SDS011;29823;47.404;8.566;2023-03-01T05:46:15;47.42;;;26.73;;
39242;SDS011;29823;47.404;8.566;2023-03-01T05:48:43;53.47;;;28.45;;
39242;SDS011;29823;47.404;8.566;2023-03-01T05:51:11;49.78;;;26.92;;
39242;SDS011;29823;47.404;8.566;2023-03-01T05:53:39;47.80;;;25.73;;
39242;SDS011;29823;47.404;8.566;2023-03-01T05:56:07;48.83;;;26.80;;
39242;SDS011;29823;47.404;8.566;2023-03-01T05:58:35;49.20;;;26.67;;
39242;SDS011;29823;47.404;8.566;2023-03-01T06:01:04;57.40;;;28.98;;
39242;SDS011;29823;47.404;8.566;2023-03-01T06:03:34;51.85;;;27.63;;
39242;SDS011;29823;47.404;8.566;2023-03-01T06:06:01;49.40;;;26.98;;
39242;SDS011;29823;47.404;8.566;2023-03-01T06:08:30;52.63;;;28.65;;
39242;SDS011;29823;47.404;8.566;2023-03-01T06:10:57;46.47;;;25.92;;
39242;SDS011;29823;47.404;8.566;2023-03-01T06:13:25;53.78;;;28.85;;
39242;SDS011;29823;47.404;8.566;2023-03-01T06:15:53;51.60;;;27.38;;
39242;SDS011;29823;47.404;8.566;2023-03-01T06:18:21;60.05;;;27.80;;
39242;SDS011;29823;47.404;8.566;2023-03-01T06:20:53;50.63;;;27.02;;
39242;SDS011;29823;47.404;8.566;2023-03-01T06:23:21;54.60;;;27.73;;
39242;SDS011;29823;47.404;8.566;2023-03-01T06:25:50;49.35;;;27.50;;
39242;SDS011;29823;47.404;8.566;2023-03-01T06:28:18;50.78;;;26.80;;
39242;SDS011;29823;47.404;8.566;2023-03-01T06:30:46;54.08;;;27.13;;
39242;SDS011;29823;47.404;8.566;2023-03-01T06:33:13;50.70;;;26.70;;
39242;SDS011;29823;47.404;8.566;2023-03-01T06:35:41;45.42;;;24.98;;
39242;SDS011;29823;47.404;8.566;2023-03-01T06:38:11;50.08;;;27.55;;
39242;SDS011;29823;47.404;8.566;2023-03-01T06:40:41;48.15;;;25.98;;
39242;SDS011;29823;47.404;8.566;2023-03-01T06:43:09;50.28;;;26.67;;
39242;SDS011;29823;47.404;8.566;2023-03-01T06:45:37;46.13;;;25.77;;
39242;SDS011;29823;47.404;8.566;2023-03-01T06:48:05;48.20;;;26.38;;
39242;SDS011;29823;47.404;8.566;2023-03-01T06:50:34;49.40;;;26.42;;
39242;SDS011;29823;47.404;8.566;2023-03-01T06:53:02;50.88;;;26.40;;
39242;SDS011;29823;47.404;8.566;2023-03-01T06:55:32;47.40;;;25.83;;
39242;SDS011;29823;47.404;8.566;2023-03-01T06:58:00;53.20;;;26.25;;
39242;SDS011;29823;47.404;8.566;2023-03-01T07:00:28;50.13;;;25.92;;
39242;SDS011;29823;47.404;8.566;2023-03-01T07:02:58;50.38;;;26.42;;
39242;SDS011;29823;47.404;8.566;2023-03-01T07:05:28;46.85;;;26.55;;
39242;SDS011;29823;47.404;8.566;2023-03-01T07:07:56;50.25;;;26.05;;
39242;SDS011;29823;47.404;8.566;2023-03-01T07:10:24;49.45;;;26.27;;
39242;SDS011;29823;47.404;8.566;2023-03-01T07:12:55;52.70;;;27.95;;
39242;SDS011;29823;47.404;8.566;2023-03-01T07:15:23;48.08;;;26.83;;
39242;SDS011;29823;47.404;8.566;2023-03-01T07:17:52;47.13;;;26.52;;
39242;SDS011;29823;47.404;8.566;2023-03-01T07:20:20;49.50;;;26.90;;
39242;SDS011;29823;47.404;8.566;2023-03-01T07:22:50;54.83;;;28.42;;
39242;SDS011;29823;47.404;8.566;2023-03-01T07:25:18;52.40;;;27.52;;
39242;SDS011;29823;47.404;8.566;2023-03-01T07:27:48;48.03;;;24.92;;
39242;SDS011;29823;47.404;8.566;2023-03-01T07:30:18;49.35;;;25.30;;
39242;SDS011;29823;47.404;8.566;2023-03-01T07:32:47;48.97;;;26.30;;
39242;SDS011;29823;47.404;8.566;2023-03-01T07:35:15;52.58;;;26.48;;
39242;SDS011;29823;47.404;8.566;2023-03-01T07:37:43;51.17;;;27.17;;
39242;SDS011;29823;47.404;8.566;2023-03-01T07:40:11;46.75;;;26.25;;
39242;SDS011;29823;47.404;8.566;2023-03-01T07:42:40;46.50;;;25.80;;
39242;SDS011;29823;47.404;8.566;2023-03-01T07:45:08;49.17;;;25.88;;
39242;SDS011;29823;47.404;8.566;2023-03-01T07:47:38;46.38;;;25.45;;
39242;SDS011;29823;47.404;8.566;2023-03-01T07:50:06;53.13;;;26.73;;
39242;SDS011;29823;47.404;8.566;2023-03-01T07:52:35;49.53;;;26.50;;
39242;SDS011;29823;47.404;8.566;2023-03-01T07:55:03;47.00;;;26.08;;
39242;SDS011;29823;47.404;8.566;2023-03-01T07:57:31;51.67;;;26.45;;
39242;SDS011;29823;47.404;8.566;2023-03-01T07:59:59;46.80;;;25.40;;
39242;SDS011;29823;47.404;8.566;2023-03-01T08:02:27;55.35;;;28.08;;
39242;SDS011;29823;47.404;8.566;2023-03-01T08:04:56;46.92;;;25.13;;
39242;SDS011;29823;47.404;8.566;2023-03-01T08:07:24;48.75;;;27.33;;
39242;SDS011;29823;47.404;8.566;2023-03-01T08:09:52;54.97;;;28.35;;
39242;SDS011;29823;47.404;8.566;2023-03-01T08:12:20;48.60;;;27.08;;
39242;SDS011;29823;47.404;8.566;2023-03-01T08:14:48;50.90;;;26.60;;
39242;SDS011;29823;47.404;8.566;2023-03-01T08:17:16;46.13;;;26.20;;
39242;SDS011;29823;47.404;8.566;2023-03-01T08:19:44;50.55;;;27.58;;
39242;SDS011;29823;47.404;8.566;2023-03-01T08:22:13;47.97;;;26.20;;
39242;SDS011;29823;47.404;8.566;2023-03-01T08:24:42;46.13;;;26.27;;
39242;SDS011;29823;47.404;8.566;2023-03-01T08:27:10;47.55;;;25.65;;
39242;SDS011;29823;47.404;8.566;2023-03-01T08:29:38;46.20;;;26.42;;
39242;SDS011;29823;47.404;8.566;2023-03-01T08:32:06;49.05;;;26.13;;
39242;SDS011;29823;47.404;8.566;2023-03-01T08:34:34;44.20;;;25.40;;
39242;SDS011;29823;47.404;8.566;2023-03-01T08:37:02;44.42;;;24.20;;
39242;SDS011;29823;47.404;8.566;2023-03-01T08:39:32;51.90;;;26.52;;
39242;SDS011;29823;47.404;8.566;2023-03-01T08:42:00;48.38;;;26.17;;
39242;SDS011;29823;47.404;8.566;2023-03-01T08:44:28;43.97;;;25.27;;
39242;SDS011;29823;47.404;8.566;2023-03-01T08:46:55;43.85;;;24.40;;
39242;SDS011;29823;47.404;8.566;2023-03-01T08:49:23;50.92;;;25.95;;
39242;SDS011;29823;47.404;8.566;2023-03-01T08:51:51;49.50;;;25.15;;
39242;SDS011;29823;47.404;8.566;2023-03-01T08:54:20;44.55;;;25.33;;
39242;SDS011;29823;47.404;8.566;2023-03-01T08:56:49;44.28;;;25.25;;
39242;SDS011;29823;47.404;8.566;2023-03-01T08:59:17;45.85;;;26.02;;
39242;SDS011;29823;47.404;8.566;2023-03-01T09:01:46;46.08;;;25.45;;
39242;SDS011;29823;47.404;8.566;2023-03-01T09:04:14;46.17;;;25.83;;
39242;SDS011;29823;47.404;8.566;2023-03-01T09:06:42;44.70;;;25.50;;
39242;SDS011;29823;47.404;8.566;2023-03-01T09:09:12;46.78;;;24.27;;
39242;SDS011;29823;47.404;8.566;2023-03-01T09:11:42;51.80;;;28.50;;
39242;SDS011;29823;47.404;8.566;2023-03-01T09:14:13;50.58;;;25.50;;
39242;SDS011;29823;47.404;8.566;2023-03-01T09:16:41;48.88;;;25.48;;
39242;SDS011;29823;47.404;8.566;2023-03-01T09:19:10;50.58;;;26.25;;
39242;SDS011;29823;47.404;8.566;2023-03-01T09:21:38;49.10;;;25.77;;
39242;SDS011;29823;47.404;8.566;2023-03-01T09:24:07;44.15;;;24.10;;
39242;SDS011;29823;47.404;8.566;2023-03-01T09:26:40;46.78;;;24.77;;
39242;SDS011;29823;47.404;8.566;2023-03-01T09:29:09;52.33;;;25.80;;
39242;SDS011;29823;47.404;8.566;2023-03-01T09:31:38;52.22;;;26.05;;
39242;SDS011;29823;47.404;8.566;2023-03-01T09:34:06;50.38;;;25.58;;
39242;SDS011;29823;47.404;8.566;2023-03-01T09:36:35;44.15;;;24.40;;
39242;SDS011;29823;47.404;8.566;2023-03-01T09:39:04;49.25;;;25.63;;
39242;SDS011;29823;47.404;8.566;2023-03-01T09:41:46;46.03;;;24.77;;
39242;SDS011;29823;47.404;8.566;2023-03-01T09:44:31;48.47;;;25.33;;
39242;SDS011;29823;47.404;8.566;2023-03-01T09:47:08;45.45;;;24.23;;
39242;SDS011;29823;47.404;8.566;2023-03-01T09:49:45;51.88;;;25.52;;
39242;SDS011;29823;47.404;8.566;2023-03-01T09:52:21;48.30;;;25.27;;
39242;SDS011;29823;47.404;8.566;2023-03-01T09:54:56;55.15;;;26.38;;
39242;SDS011;29823;47.404;8.566;2023-03-01T09:57:28;46.75;;;24.48;;
39242;SDS011;29823;47.404;8.566;2023-03-01T10:00:03;45.55;;;24.33;;
39242;SDS011;29823;47.404;8.566;2023-03-01T10:02:44;47.80;;;25.30;;
39242;SDS011;29823;47.404;8.566;2023-03-01T10:05:26;51.40;;;25.40;;
39242;SDS011;29823;47.404;8.566;2023-03-01T10:08:23;43.72;;;23.65;;
39242;SDS011;29823;47.404;8.566;2023-03-01T10:10:56;45.55;;;22.83;;
39242;SDS011;29823;47.404;8.566;2023-03-01T10:13:26;48.95;;;23.77;;
39242;SDS011;29823;47.404;8.566;2023-03-01T10:16:16;48.80;;;24.23;;
39242;SDS011;29823;47.404;8.566;2023-03-01T10:21:20;46.83;;;22.95;;
39242;SDS011;29823;47.404;8.566;2023-03-01T10:23:49;46.10;;;22.77;;
39242;SDS011;29823;47.404;8.566;2023-03-01T10:26:26;44.20;;;23.35;;
39242;SDS011;29823;47.404;8.566;2023-03-01T10:29:03;44.72;;;22.95;;
39242;SDS011;29823;47.404;8.566;2023-03-01T10:31:37;43.92;;;23.30;;
39242;SDS011;29823;47.404;8.566;2023-03-01T10:34:12;46.08;;;24.23;;
39242;SDS011;29823;47.404;8.566;2023-03-01T10:36:47;44.20;;;23.85;;
39242;SDS011;29823;47.404;8.566;2023-03-01T10:39:18;47.28;;;23.40;;
39242;SDS011;29823;47.404;8.566;2023-03-01T10:41:54;45.75;;;22.65;;
39242;SDS011;29823;47.404;8.566;2023-03-01T10:44:35;44.17;;;22.98;;
39242;SDS011;29823;47.404;8.566;2023-03-01T10:47:05;44.97;;;23.35;;
39242;SDS011;29823;47.404;8.566;2023-03-01T10:49:42;44.97;;;22.08;;
39242;SDS011;29823;47.404;8.566;2023-03-01T10:52:20;42.17;;;22.77;;
39242;SDS011;29823;47.404;8.566;2023-03-01T10:54:51;42.42;;;22.83;;
39242;SDS011;29823;47.404;8.566;2023-03-01T10:57:29;48.75;;;23.55;;
39242;SDS011;29823;47.404;8.566;2023-03-01T11:00:16;40.63;;;21.60;;
39242;SDS011;29823;47.404;8.566;2023-03-01T11:02:50;50.60;;;24.38;;
39242;SDS011;29823;47.404;8.566;2023-03-01T11:05:30;44.35;;;23.08;;
39242;SDS011;29823;47.404;8.566;2023-03-01T11:08:00;44.38;;;22.98;;
39242;SDS011;29823;47.404;8.566;2023-03-01T11:10:31;44.95;;;21.88;;
39242;SDS011;29823;47.404;8.566;2023-03-01T11:13:07;45.70;;;23.27;;
39242;SDS011;29823;47.404;8.566;2023-03-01T11:15:40;43.25;;;22.70;;
39242;SDS011;29823;47.404;8.566;2023-03-01T11:18:18;41.88;;;22.00;;
39242;SDS011;29823;47.404;8.566;2023-03-01T11:21:07;42.20;;;22.75;;
39242;SDS011;29823;47.404;8.566;2023-03-01T11:23:35;42.55;;;23.58;;
39242;SDS011;29823;47.404;8.566;2023-03-01T11:26:07;45.50;;;23.48;;
39242;SDS011;29823;47.404;8.566;2023-03-01T11:28:38;45.75;;;24.92;;
39242;SDS011;29823;47.404;8.566;2023-03-01T11:31:09;40.95;;;20.58;;
39242;SDS011;29823;47.404;8.566;2023-03-01T11:33:40;51.90;;;22.75;;
39242;SDS011;29823;47.404;8.566;2023-03-01T11:36:19;41.85;;;22.13;;
39242;SDS011;29823;47.404;8.566;2023-03-01T11:38:57;38.30;;;21.00;;
39242;SDS011;29823;47.404;8.566;2023-03-01T11:41:33;41.50;;;21.13;;
39242;SDS011;29823;47.404;8.566;2023-03-01T11:44:05;41.25;;;22.15;;
39242;SDS011;29823;47.404;8.566;2023-03-01T11:46:44;42.20;;;22.00;;
39242;SDS011;29823;47.404;8.566;2023-03-01T11:49:36;43.88;;;23.10;;
39242;SDS011;29823;47.404;8.566;2023-03-01T11:52:22;44.05;;;21.77;;
39242;SDS011;29823;47.404;8.566;2023-03-01T11:55:11;42.53;;;22.40;;
39242;SDS011;29823;47.404;8.566;2023-03-01T11:57:57;45.33;;;21.77;;
39242;SDS011;29823;47.404;8.566;2023-03-01T12:00:42;40.83;;;21.60;;
39242;SDS011;29823;47.404;8.566;2023-03-01T12:03:40;39.72;;;22.48;;
39242;SDS011;29823;47.404;8.566;2023-03-01T12:06:35;43.65;;;23.20;;
39242;SDS011;29823;47.404;8.566;2023-03-01T12:09:19;42.42;;;23.30;;
39242;SDS011;29823;47.404;8.566;2023-03-01T12:12:04;45.22;;;22.05;;
39242;SDS011;29823;47.404;8.566;2023-03-01T12:14:48;43.25;;;21.98;;
39242;SDS011;29823;47.404;8.566;2023-03-01T12:20:23;46.95;;;24.50;;
39242;SDS011;29823;47.404;8.566;2023-03-01T12:23:10;42.92;;;23.80;;
39242;SDS011;29823;47.404;8.566;2023-03-01T12:25:52;47.60;;;23.50;;
39242;SDS011;29823;47.404;8.566;2023-03-01T12:28:35;51.85;;;24.70;;
39242;SDS011;29823;47.404;8.566;2023-03-01T12:34:33;45.20;;;24.38;;
39242;SDS011;29823;47.404;8.566;2023-03-01T12:37:14;40.95;;;22.75;;
39242;SDS011;29823;47.404;8.566;2023-03-01T12:39:52;48.13;;;25.00;;
39242;SDS011;29823;47.404;8.566;2023-03-01T12:42:33;47.38;;;25.13;;
39242;SDS011;29823;47.404;8.566;2023-03-01T12:45:26;48.30;;;24.75;;
39242;SDS011;29823;47.404;8.566;2023-03-01T12:48:19;45.50;;;23.90;;
39242;SDS011;29823;47.404;8.566;2023-03-01T12:51:06;41.72;;;22.45;;
39242;SDS011;29823;47.404;8.566;2023-03-01T12:56:08;43.28;;;22.98;;
39242;SDS011;29823;47.404;8.566;2023-03-01T12:58:41;47.90;;;24.35;;
39242;SDS011;29823;47.404;8.566;2023-03-01T13:01:28;52.30;;;24.92;;
39242;SDS011;29823;47.404;8.566;2023-03-01T13:04:08;44.45;;;24.92;;
39242;SDS011;29823;47.404;8.566;2023-03-01T13:06:46;41.17;;;22.55;;
39242;SDS011;29823;47.404;8.566;2023-03-01T13:09:23;43.53;;;22.90;;
39242;SDS011;29823;47.404;8.566;2023-03-01T13:11:57;44.38;;;24.05;;
39242;SDS011;29823;47.404;8.566;2023-03-01T13:14:36;46.65;;;23.60;;
39242;SDS011;29823;47.404;8.566;2023-03-01T13:20:12;44.20;;;23.60;;
39242;SDS011;29823;47.404;8.566;2023-03-01T13:22:42;41.88;;;23.77;;
39242;SDS011;29823;47.404;8.566;2023-03-01T13:25:20;42.53;;;24.50;;
39242;SDS011;29823;47.404;8.566;2023-03-01T13:30:59;45.63;;;23.52;;
39242;SDS011;29823;47.404;8.566;2023-03-01T13:33:40;41.78;;;23.63;;
39242;SDS011;29823;47.404;8.566;2023-03-01T13:39:27;40.17;;;22.40;;
39242;SDS011;29823;47.404;8.566;2023-03-01T13:41:59;47.05;;;25.63;;
39242;SDS011;29823;47.404;8.566;2023-03-01T13:44:29;42.17;;;22.15;;
39242;SDS011;29823;47.404;8.566;2023-03-01T13:47:03;42.55;;;23.67;;
39242;SDS011;29823;47.404;8.566;2023-03-01T13:49:42;41.75;;;23.42;;
39242;SDS011;29823;47.404;8.566;2023-03-01T13:52:32;45.00;;;23.05;;
39242;SDS011;29823;47.404;8.566;2023-03-01T13:55:06;44.67;;;23.90;;
39242;SDS011;29823;47.404;8.566;2023-03-01T13:57:45;49.33;;;23.60;;
39242;SDS011;29823;47.404;8.566;2023-03-01T14:00:28;43.30;;;23.60;;
39242;SDS011;29823;47.404;8.566;2023-03-01T14:03:03;46.78;;;23.10;;
39242;SDS011;29823;47.404;8.566;2023-03-01T14:05:36;51.22;;;24.45;;
39242;SDS011;29823;47.404;8.566;2023-03-01T14:08:13;44.83;;;23.45;;
39242;SDS011;29823;47.404;8.566;2023-03-01T14:10:50;44.35;;;23.30;;
39242;SDS011;29823;47.404;8.566;2023-03-01T14:13:31;45.20;;;23.20;;
39242;SDS011;29823;47.404;8.566;2023-03-01T14:16:16;42.60;;;23.73;;
39242;SDS011;29823;47.404;8.566;2023-03-01T14:18:54;45.90;;;24.70;;
39242;SDS011;29823;47.404;8.566;2023-03-01T14:21:29;42.83;;;23.98;;
39242;SDS011;29823;47.404;8.566;2023-03-01T14:23:57;45.60;;;24.13;;
39242;SDS011;29823;47.404;8.566;2023-03-01T14:26:25;45.95;;;24.63;;
39242;SDS011;29823;47.404;8.566;2023-03-01T14:28:53;41.05;;;22.05;;
39242;SDS011;29823;47.404;8.566;2023-03-01T14:31:29;45.90;;;24.33;;
39242;SDS011;29823;47.404;8.566;2023-03-01T14:34:20;49.90;;;23.80;;
39242;SDS011;29823;47.404;8.566;2023-03-01T14:36:49;41.85;;;22.83;;
39242;SDS011;29823;47.404;8.566;2023-03-01T14:39:18;43.55;;;22.92;;
39242;SDS011;29823;47.404;8.566;2023-03-01T14:41:47;50.05;;;25.83;;
39242;SDS011;29823;47.404;8.566;2023-03-01T14:44:16;46.75;;;24.02;;
39242;SDS011;29823;47.404;8.566;2023-03-01T14:46:54;47.13;;;24.20;;
39242;SDS011;29823;47.404;8.566;2023-03-01T14:49:25;44.00;;;23.70;;
39242;SDS011;29823;47.404;8.566;2023-03-01T14:51:58;47.03;;;24.75;;
39242;SDS011;29823;47.404;8.566;2023-03-01T14:54:31;42.42;;;24.60;;
39242;SDS011;29823;47.404;8.566;2023-03-01T14:57:12;47.03;;;24.52;;
39242;SDS011;29823;47.404;8.566;2023-03-01T14:59:42;51.80;;;25.38;;
39242;SDS011;29823;47.404;8.566;2023-03-01T15:02:11;46.35;;;24.15;;
39242;SDS011;29823;47.404;8.566;2023-03-01T15:04:45;42.15;;;22.85;;
39242;SDS011;29823;47.404;8.566;2023-03-01T15:07:16;45.65;;;23.98;;
39242;SDS011;29823;47.404;8.566;2023-03-01T15:09:44;41.53;;;24.00;;